createdAt,value
2018-06-21T00:01:55.500Z,6.50
2018-06-21T00:04:25.303Z,7.10
2018-06-21T00:06:54.088Z,7.10
2018-06-21T00:09:31.300Z,7.80
2018-06-21T00:12:03.295Z,7.10
2018-06-21T00:14:34.168Z,6.90
2018-06-21T00:17:04.040Z,6.87
2018-06-21T00:19:35.975Z,7.30
2018-06-21T00:22:04.876Z,6.90
2018-06-21T00:24:33.799Z,6.90
2018-06-21T00:27:02.700Z,7.73
2018-06-21T00:29:31.496Z,6.87
2018-06-21T00:32:04.644Z,6.33
2018-06-21T00:34:33.698Z,7.20
2018-06-21T00:37:02.538Z,6.80
2018-06-21T00:39:31.495Z,7.57
2018-06-21T00:42:00.478Z,7.13
2018-06-21T00:44:35.000Z,7.30
2018-06-21T00:47:12.188Z,7.63
2018-06-21T00:49:41.064Z,6.80
2018-06-21T00:52:15.571Z,6.60
2018-06-21T00:54:45.512Z,7.50
2018-06-21T00:57:14.312Z,7.60
2018-06-21T00:59:43.147Z,7.03
2018-06-21T01:02:13.144Z,7.53
2018-06-21T01:04:42.112Z,7.30
2018-06-21T01:07:10.891Z,8.03
2018-06-21T01:09:39.815Z,7.80
2018-06-21T01:12:15.888Z,8.63
2018-06-21T01:14:44.655Z,8.57
2018-06-21T01:17:17.972Z,7.90
2018-06-21T01:19:48.783Z,7.20
2018-06-21T01:22:18.584Z,7.40
2018-06-21T01:24:48.617Z,8.20
2018-06-21T01:27:23.868Z,7.87
2018-06-21T01:29:56.036Z,8.50
2018-06-21T01:32:25.843Z,7.60
2018-06-21T01:34:54.660Z,8.43
2018-06-21T01:37:25.431Z,7.90
2018-06-21T01:39:55.215Z,8.50
2018-06-21T01:42:33.659Z,7.77
2018-06-21T01:45:12.627Z,8.80
2018-06-21T01:47:45.931Z,8.50
2018-06-21T01:50:17.731Z,9.23
2018-06-21T01:52:47.508Z,8.13
2018-06-21T01:55:23.215Z,8.97
2018-06-21T01:57:55.487Z,8.67
2018-06-21T02:00:26.292Z,8.67
2018-06-21T02:02:57.076Z,7.47
2018-06-21T02:05:27.913Z,8.20
2018-06-21T02:07:56.669Z,8.27
2018-06-21T02:10:28.927Z,8.53
2018-06-21T02:13:00.804Z,8.17
2018-06-21T02:15:29.667Z,8.87
2018-06-21T02:17:59.452Z,8.23
2018-06-21T02:20:28.415Z,8.90
2018-06-21T02:22:57.443Z,8.70
2018-06-21T02:25:47.151Z,9.37
2018-06-21T02:28:21.623Z,8.73
2018-06-21T02:30:50.444Z,8.13
2018-06-21T02:33:31.476Z,9.60
2018-06-21T02:36:01.305Z,8.80
2018-06-21T02:38:30.123Z,9.63
2018-06-21T02:40:58.855Z,10.57
2018-06-21T02:43:28.692Z,10.07
2018-06-21T02:45:57.444Z,9.13
2018-06-21T02:48:28.172Z,9.00
2018-06-21T02:50:56.911Z,9.50
2018-06-21T02:53:29.579Z,10.67
2018-06-21T02:55:59.436Z,9.43
2018-06-21T02:58:37.868Z,10.57
2018-06-21T03:01:12.267Z,10.40
2018-06-21T03:03:41.119Z,9.37
2018-06-21T03:06:12.100Z,9.70
2018-06-21T03:08:43.027Z,10.57
2018-06-21T03:11:11.919Z,9.80
2018-06-21T03:13:40.880Z,9.90
2018-06-21T03:16:13.487Z,10.23
2018-06-21T03:18:42.475Z,10.27
2018-06-21T03:21:12.460Z,10.13
2018-06-21T03:23:41.291Z,10.93
2018-06-21T03:26:10.199Z,10.87
2018-06-21T03:28:42.655Z,11.07
2018-06-21T03:31:32.644Z,11.43
2018-06-21T03:34:03.491Z,10.10
2018-06-21T03:36:32.335Z,10.63
2018-06-21T03:39:01.064Z,11.07
2018-06-21T03:41:46.832Z,9.60
2018-06-21T03:44:16.866Z,10.50
2018-06-21T03:46:47.688Z,10.80
2018-06-21T03:49:16.551Z,9.43
2018-06-21T03:51:46.343Z,10.53
2018-06-21T03:54:16.187Z,10.07
2018-06-21T03:56:44.935Z,10.70
2018-06-21T03:59:13.703Z,9.60
2018-06-21T04:01:49.451Z,11.10
2018-06-21T04:04:19.311Z,10.23
2018-06-21T04:06:48.111Z,9.70
2018-06-21T04:09:18.963Z,10.27
2018-06-21T04:11:47.855Z,9.33
2018-06-21T04:14:16.716Z,10.07
2018-06-21T04:16:46.451Z,9.27
2018-06-21T04:19:17.256Z,9.93
2018-06-21T04:21:51.200Z,9.30
2018-06-21T04:24:20.086Z,10.00
2018-06-21T04:26:53.335Z,9.73
2018-06-21T04:29:23.156Z,10.20
2018-06-21T04:31:55.796Z,9.60
2018-06-21T04:34:26.603Z,9.17
2018-06-21T04:36:55.139Z,9.20
2018-06-21T04:42:19.498Z,9.73
2018-06-21T04:44:48.327Z,8.77
2018-06-21T04:47:18.140Z,9.07
2018-06-21T04:49:46.931Z,9.20
2018-06-21T04:52:15.680Z,8.73
2018-06-21T04:54:50.311Z,8.50
2018-06-21T04:57:21.099Z,8.70
2018-06-21T04:59:49.826Z,8.40
2018-06-21T05:02:25.383Z,9.43
2018-06-21T05:04:55.231Z,7.37
2018-06-21T05:07:42.623Z,7.37
2018-06-21T05:10:14.347Z,7.00
2018-06-21T05:12:43.219Z,7.33
2018-06-21T05:15:15.375Z,7.07
2018-06-21T05:17:46.195Z,6.13
2018-06-21T05:20:26.607Z,5.73
2018-06-21T05:22:55.326Z,6.07
2018-06-21T05:25:30.004Z,6.63
2018-06-21T05:28:05.459Z,6.00
2018-06-21T05:30:38.323Z,6.07
2018-06-21T05:33:09.071Z,5.93
2018-06-21T05:35:39.827Z,5.77
2018-06-21T05:38:09.571Z,5.57
2018-06-21T05:40:46.495Z,5.30
2018-06-21T05:43:19.055Z,4.93
2018-06-21T05:45:47.822Z,4.97
2018-06-21T05:48:24.235Z,4.73
2018-06-21T05:50:53.074Z,5.40
2018-06-21T05:53:22.834Z,5.70
2018-06-21T05:55:52.599Z,5.40
2018-06-21T05:58:31.771Z,5.17
2018-06-21T06:01:03.535Z,5.33
2018-06-21T06:03:54.439Z,5.20
2018-06-21T06:06:31.387Z,4.77
2018-06-21T06:09:20.948Z,5.03
2018-06-21T06:11:51.810Z,5.07
2018-06-21T06:14:27.475Z,5.13
2018-06-21T06:16:57.290Z,5.30
2018-06-21T06:19:27.060Z,4.90
2018-06-21T06:21:56.815Z,4.93
2018-06-21T06:24:25.530Z,4.93
2018-06-21T06:26:55.251Z,5.53
2018-06-21T06:29:27.473Z,5.30
2018-06-21T06:31:57.276Z,5.47
2018-06-21T06:34:29.615Z,4.67
2018-06-21T06:36:58.311Z,4.90
2018-06-21T06:39:28.143Z,4.30
2018-06-21T06:41:56.866Z,4.53
2018-06-21T06:44:37.035Z,4.57
2018-06-21T06:47:06.808Z,4.43
2018-06-21T06:49:36.554Z,3.80
2018-06-21T06:52:09.999Z,4.13
2018-06-21T06:54:39.786Z,4.17
2018-06-21T06:57:10.527Z,3.70
2018-06-21T06:59:52.154Z,3.77
2018-06-21T07:02:22.879Z,3.77
2018-06-21T07:04:51.739Z,3.67
2018-06-21T07:07:39.008Z,3.80
2018-06-21T07:10:09.799Z,3.50
2018-06-21T07:12:38.663Z,3.20
2018-06-21T07:15:13.183Z,2.97
2018-06-21T07:17:45.366Z,2.90
2018-06-21T07:20:14.372Z,3.37
2018-06-21T07:22:43.235Z,3.17
2018-06-21T07:25:12.075Z,2.93
2018-06-21T07:27:40.959Z,3.27
2018-06-21T07:30:09.893Z,2.93
2018-06-21T07:32:50.755Z,2.93
2018-06-21T07:35:23.099Z,2.90
2018-06-21T07:37:56.894Z,3.27
2018-06-21T07:40:26.047Z,2.97
2018-06-21T07:42:54.791Z,3.53
2018-06-21T07:45:23.643Z,3.10
2018-06-21T07:47:53.363Z,3.60
2018-06-21T07:50:40.915Z,3.70
2018-06-21T07:53:11.738Z,4.90
2018-06-21T07:55:48.247Z,4.30
2018-06-21T07:58:17.219Z,5.10
2018-06-21T08:00:48.115Z,3.60
2018-06-21T08:03:16.871Z,3.10
2018-06-21T08:05:50.067Z,3.20
2018-06-21T08:08:18.790Z,4.73
2018-06-21T08:10:57.069Z,3.60
2018-06-21T08:13:25.851Z,3.50
2018-06-21T08:15:57.931Z,3.97
2018-06-21T08:18:26.695Z,3.40
2018-06-21T08:20:55.494Z,3.40
2018-06-21T08:23:25.306Z,3.53
2018-06-21T08:25:55.042Z,3.23
2018-06-21T08:28:26.998Z,3.47
2018-06-21T08:31:14.958Z,3.60
2018-06-21T08:33:44.879Z,3.37
2018-06-21T08:36:15.683Z,3.17
2018-06-21T08:38:44.516Z,3.40
2018-06-21T08:41:16.638Z,3.60
2018-06-21T08:43:51.183Z,2.87
2018-06-21T08:46:20.898Z,3.20
2018-06-21T08:48:49.743Z,3.10
2018-06-21T08:51:19.597Z,3.50
2018-06-21T08:53:48.438Z,2.97
2018-06-21T08:56:18.299Z,3.00
2018-06-21T08:58:48.239Z,3.03
2018-06-21T09:01:18.982Z,3.40
2018-06-21T09:03:54.632Z,3.43
2018-06-21T09:06:23.287Z,3.03
2018-06-21T09:08:53.018Z,3.40
2018-06-21T09:11:21.730Z,3.20
2018-06-21T09:13:51.427Z,3.30
2018-06-21T09:16:25.154Z,2.73
2018-06-21T09:19:00.547Z,3.17
2018-06-21T09:21:29.383Z,3.00
2018-06-21T09:23:58.154Z,2.70
2018-06-21T09:26:31.922Z,3.20
2018-06-21T09:29:01.647Z,3.40
2018-06-21T09:31:30.455Z,3.00
2018-06-21T09:33:59.174Z,2.70
2018-06-21T09:36:34.250Z,5.77
2018-06-21T09:39:14.726Z,3.70
2018-06-21T09:41:50.196Z,2.60
2018-06-21T09:44:24.406Z,4.17
2018-06-21T09:46:58.561Z,3.00
2018-06-21T09:49:40.075Z,3.03
2018-06-21T09:52:22.957Z,2.70
2018-06-21T09:54:52.655Z,2.57
2018-06-21T09:57:26.599Z,2.40
2018-06-21T09:59:58.535Z,2.70
2018-06-21T10:02:27.298Z,3.30
2018-06-21T10:04:59.215Z,2.63
2018-06-21T10:07:28.054Z,3.10
2018-06-21T10:09:57.798Z,2.80
2018-06-21T10:12:29.935Z,2.23
2018-06-21T10:14:58.651Z,2.80
2018-06-21T10:17:41.352Z,2.40
2018-06-21T10:20:17.610Z,2.40
2018-06-21T10:22:50.077Z,2.53
2018-06-21T10:25:19.802Z,2.70
2018-06-21T10:27:51.631Z,2.57
2018-06-21T10:30:23.811Z,2.20
2018-06-21T10:32:54.059Z,2.40
2018-06-21T10:35:22.931Z,2.60
2018-06-21T10:37:52.135Z,2.90
2018-06-21T10:40:32.803Z,2.60
2018-06-21T10:43:07.258Z,2.80
2018-06-21T10:45:41.070Z,2.40
2018-06-21T10:48:11.794Z,2.90
2018-06-21T10:50:49.882Z,2.60
2018-06-21T10:53:29.067Z,2.47
2018-06-21T10:55:57.866Z,2.37
2018-06-21T10:58:39.402Z,2.20
2018-06-21T11:01:10.179Z,2.60
2018-06-21T11:03:40.907Z,2.30
2018-06-21T11:06:09.714Z,2.20
2018-06-21T11:08:39.559Z,1.87
2018-06-21T11:11:08.278Z,2.17
2018-06-21T11:13:37.146Z,2.03
2018-06-21T11:16:20.258Z,2.73
2018-06-21T11:18:51.266Z,2.80
2018-06-21T11:21:21.034Z,2.37
2018-06-21T11:23:57.530Z,2.40
2018-06-21T11:26:38.238Z,2.70
2018-06-21T11:29:12.242Z,2.60
2018-06-21T11:31:43.976Z,2.90
2018-06-21T11:34:15.770Z,2.60
2018-06-21T11:36:44.618Z,3.50
2018-06-21T11:39:16.686Z,2.80
2018-06-21T11:41:57.312Z,2.57
2018-06-21T11:44:26.185Z,2.50
2018-06-21T11:46:58.334Z,2.90
2018-06-21T11:49:27.140Z,2.27
2018-06-21T11:51:59.874Z,3.33
2018-06-21T11:54:34.250Z,2.23
2018-06-21T11:57:07.818Z,2.57
2018-06-21T11:59:45.706Z,2.90
2018-06-21T12:02:17.482Z,2.77
2018-06-21T12:04:47.298Z,3.70
2018-06-21T12:07:16.058Z,2.90
2018-06-21T12:09:46.896Z,2.77
2018-06-21T12:12:26.763Z,2.80
2018-06-21T12:14:56.906Z,3.40
2018-06-21T12:17:25.658Z,2.57
2018-06-21T12:19:57.238Z,3.43
2018-06-21T12:22:26.086Z,2.93
2018-06-21T12:24:56.158Z,3.17
2018-06-21T12:27:26.890Z,3.10
2018-06-21T12:29:59.199Z,3.13
2018-06-21T12:32:27.898Z,3.40
2018-06-21T12:34:58.639Z,3.23
2018-06-21T12:37:29.422Z,3.00
2018-06-21T12:39:58.178Z,3.30
2018-06-21T12:42:39.182Z,3.63
2018-06-21T12:45:08.922Z,3.87
2018-06-21T12:47:37.690Z,3.37
2018-06-21T12:50:09.582Z,3.30
2018-06-21T12:52:45.834Z,3.60
2018-06-21T12:55:18.243Z,5.17
2018-06-21T12:57:50.110Z,3.20
2018-06-21T13:00:25.695Z,2.87
2018-06-21T13:03:05.342Z,2.60
2018-06-21T13:05:34.055Z,2.47
2018-06-21T13:08:10.510Z,2.50
2018-06-21T13:10:53.792Z,2.80
2018-06-21T13:13:25.122Z,3.23
2018-06-21T13:15:53.907Z,2.30
2018-06-21T13:18:42.884Z,2.60
2018-06-21T13:21:11.774Z,2.37
2018-06-21T13:23:44.314Z,1.90
2018-06-21T13:26:13.086Z,2.30
2018-06-21T13:28:42.922Z,1.83
2018-06-21T13:31:12.752Z,2.20
2018-06-21T13:33:43.618Z,1.57
2018-06-21T13:36:17.348Z,2.23
2018-06-21T13:38:51.249Z,2.00
2018-06-21T13:41:25.649Z,1.80
2018-06-21T13:43:54.525Z,2.00
2018-06-21T13:46:31.273Z,2.33
2018-06-21T13:49:03.422Z,1.70
2018-06-21T13:51:41.973Z,1.90
2018-06-21T13:54:16.749Z,1.93
2018-06-21T13:56:51.533Z,2.00
2018-06-21T13:59:22.274Z,2.07
2018-06-21T14:01:54.869Z,2.00
2018-06-21T14:04:30.893Z,2.13
2018-06-21T14:07:00.637Z,1.80
2018-06-21T14:09:33.109Z,2.47
2018-06-21T14:12:01.894Z,2.00
2018-06-21T14:14:38.152Z,3.33
2018-06-21T14:17:07.009Z,2.07
2018-06-21T14:19:39.414Z,1.93
2018-06-21T14:22:13.713Z,2.70
2018-06-21T14:24:44.517Z,1.87
2018-06-21T14:27:13.325Z,2.33
2018-06-21T14:29:58.567Z,2.30
2018-06-21T14:32:29.253Z,2.27
2018-06-21T14:34:59.005Z,2.87
2018-06-21T14:37:34.509Z,2.20
2018-06-21T14:40:08.374Z,2.73
2018-06-21T14:42:41.146Z,2.87
2018-06-21T14:45:09.921Z,3.00
2018-06-21T14:47:58.374Z,2.77
2018-06-21T14:50:55.006Z,2.90
2018-06-21T14:53:30.534Z,2.80
2018-06-21T14:55:59.238Z,3.10
2018-06-21T14:58:31.118Z,3.77
2018-06-21T15:01:11.038Z,3.87
2018-06-21T15:03:46.912Z,3.70
2018-06-21T15:06:21.286Z,4.20
2018-06-21T15:08:58.543Z,4.37
2018-06-21T15:11:28.297Z,3.93
2018-06-21T15:13:57.105Z,3.43
2018-06-21T15:16:25.857Z,2.73
2018-06-21T15:18:58.626Z,4.37
2018-06-21T15:21:37.249Z,4.13
2018-06-21T15:24:07.005Z,3.63
2018-06-21T15:26:44.133Z,4.00
2018-06-21T15:29:13.498Z,2.83
2018-06-21T15:31:42.231Z,3.30
2018-06-21T15:34:11.054Z,3.57
2018-06-21T15:36:41.750Z,3.60
2018-06-21T15:39:27.914Z,3.07
2018-06-21T15:41:59.846Z,3.30
2018-06-21T15:44:41.009Z,3.27
2018-06-21T15:47:12.865Z,2.93
2018-06-21T15:49:43.605Z,2.70
2018-06-21T15:52:14.313Z,2.20
2018-06-21T15:54:55.340Z,2.77
2018-06-21T16:00:18.737Z,2.63
2018-06-21T16:02:53.669Z,2.60
2018-06-21T16:08:16.125Z,2.67
2018-06-21T16:10:52.597Z,2.70
2018-06-21T16:13:26.770Z,2.87
2018-06-21T16:15:55.639Z,2.70
2018-06-21T16:18:41.320Z,3.00
2018-06-21T16:21:10.064Z,3.40
2018-06-21T16:23:48.687Z,3.40
2018-06-21T16:26:23.773Z,3.23
2018-06-21T16:28:53.041Z,3.87
2018-06-21T16:31:31.295Z,3.80
2018-06-21T16:33:59.984Z,4.30
2018-06-21T16:36:39.680Z,5.10
2018-06-21T16:39:09.652Z,4.43
2018-06-21T16:41:38.452Z,4.70
2018-06-21T16:44:07.229Z,5.63
2018-06-21T16:46:36.949Z,5.57
2018-06-21T16:49:05.779Z,4.80
2018-06-21T16:51:40.029Z,4.67
2018-06-21T16:54:10.773Z,5.67
2018-06-21T16:56:44.388Z,6.53
2018-06-21T16:59:18.399Z,6.10
2018-06-21T17:01:48.222Z,6.97
2018-06-21T17:04:19.033Z,6.23
2018-06-21T17:06:47.984Z,6.90
2018-06-21T17:09:20.108Z,7.40
2018-06-21T17:11:55.649Z,6.40
2018-06-21T17:14:24.373Z,6.17
2018-06-21T17:16:53.467Z,5.90
2018-06-21T17:19:25.707Z,6.27
2018-06-21T17:21:54.589Z,4.70
2018-06-21T17:24:26.668Z,3.80
2018-06-21T17:27:00.444Z,3.70
2018-06-21T17:29:29.260Z,3.20
2018-06-21T17:32:02.213Z,3.60
2018-06-21T17:34:32.960Z,3.00
2018-06-21T17:37:05.271Z,2.83
2018-06-21T17:39:47.000Z,2.90
2018-06-21T17:42:20.408Z,3.00
2018-06-21T17:44:49.825Z,2.20
2018-06-21T17:47:26.356Z,2.90
2018-06-21T17:49:59.781Z,2.20
2018-06-21T17:52:41.941Z,2.47
2018-06-21T17:55:29.040Z,2.10
2018-06-21T17:58:04.262Z,1.53
2018-06-21T18:00:47.037Z,1.80
2018-06-21T18:03:15.829Z,1.93
2018-06-21T18:05:47.804Z,1.87
2018-06-21T18:08:20.813Z,1.90
2018-06-21T18:10:53.873Z,1.73
2018-06-21T18:13:22.681Z,2.03
2018-06-21T18:16:03.604Z,1.70
2018-06-21T18:18:39.957Z,2.00
2018-06-21T18:21:08.820Z,2.40
2018-06-21T18:23:41.420Z,1.60
2018-06-21T18:26:10.256Z,2.13
2018-06-21T18:28:43.310Z,1.73
2018-06-21T18:31:18.120Z,1.40
2018-06-21T18:33:59.004Z,1.90
2018-06-21T18:36:27.980Z,1.87
2018-06-21T18:38:57.193Z,1.70
2018-06-21T18:41:26.025Z,1.50
2018-06-21T18:44:00.660Z,1.63
2018-06-21T18:46:32.604Z,1.23
2018-06-21T18:49:01.938Z,1.70
2018-06-21T18:51:30.698Z,1.73
2018-06-21T18:54:00.596Z,2.23
2018-06-21T18:56:42.017Z,1.80
2018-06-21T18:59:14.272Z,1.70
2018-06-21T19:01:48.060Z,1.13
2018-06-21T19:04:17.988Z,1.53
2018-06-21T19:06:56.436Z,1.50
2018-06-21T19:09:31.540Z,1.73
2018-06-21T19:12:01.752Z,2.27
2018-06-21T19:14:40.626Z,1.60
2018-06-21T19:20:08.697Z,1.37
2018-06-21T19:22:43.397Z,1.63
2018-06-21T19:25:12.091Z,1.50
2018-06-21T19:27:47.874Z,1.50
2018-06-21T19:30:21.625Z,1.33
2018-06-21T19:32:55.428Z,1.73
2018-06-21T19:35:38.220Z,1.60
2018-06-21T19:38:07.072Z,1.57
2018-06-21T19:40:43.544Z,1.20
2018-06-21T19:43:15.416Z,1.97
2018-06-21T19:45:44.060Z,1.47
2018-06-21T19:48:12.801Z,1.50
2018-06-21T19:50:43.596Z,1.40
2018-06-21T19:53:12.384Z,1.50
2018-06-21T19:55:42.165Z,1.40
2018-06-21T19:58:18.236Z,2.20
2018-06-21T20:00:54.136Z,1.30
2018-06-21T20:03:23.848Z,1.67
2018-06-21T20:05:58.081Z,1.20
2018-06-21T20:08:36.788Z,1.57
2018-06-21T20:11:15.724Z,1.40
2018-06-21T20:13:46.360Z,1.93
2018-06-21T20:16:15.491Z,1.20
2018-06-21T20:18:47.318Z,1.30
2018-06-21T20:21:22.452Z,1.10
2018-06-21T20:23:54.404Z,1.47
2018-06-21T20:26:26.336Z,1.77
2018-06-21T20:28:56.064Z,1.30
2018-06-21T20:31:25.872Z,1.10
2018-06-21T20:33:57.720Z,1.77
2018-06-21T20:36:29.692Z,1.50
2018-06-21T20:38:59.524Z,1.17
2018-06-21T20:41:29.317Z,1.10
2018-06-21T20:43:59.812Z,1.10
2018-06-21T20:46:32.144Z,1.40
2018-06-21T20:49:01.861Z,1.20
2018-06-21T20:51:38.544Z,1.00
2018-06-21T20:54:12.796Z,1.13
2018-06-21T20:56:43.059Z,1.47
2018-06-21T20:59:11.672Z,1.60
2018-06-21T21:01:40.320Z,1.40
2018-06-21T21:04:10.060Z,1.57
2018-06-21T21:06:40.624Z,1.13
2018-06-21T21:09:10.274Z,1.27
2018-06-21T21:11:45.276Z,1.50
2018-06-21T21:14:13.779Z,1.03
2018-06-21T21:16:44.400Z,2.13
2018-06-21T21:19:13.232Z,1.33
2018-06-21T21:21:53.396Z,1.13
2018-06-21T21:24:25.920Z,1.47
2018-06-21T21:27:00.031Z,1.00
2018-06-21T21:29:28.764Z,2.07
2018-06-21T21:31:58.499Z,1.20
2018-06-21T21:34:30.347Z,1.20
2018-06-21T21:37:01.056Z,1.30
2018-06-21T21:39:40.906Z,1.33
2018-06-21T21:42:11.600Z,1.13
2018-06-21T21:44:40.524Z,1.40
2018-06-21T21:47:09.268Z,1.30
2018-06-21T21:49:43.149Z,1.10
2018-06-21T21:52:17.312Z,1.17
2018-06-21T21:54:50.395Z,1.43
2018-06-21T21:57:20.324Z,1.43
2018-06-21T21:59:59.851Z,1.33
2018-06-21T22:02:35.904Z,1.30
2018-06-21T22:05:06.357Z,1.50
2018-06-21T22:07:35.080Z,1.10
2018-06-21T22:10:10.552Z,1.70
2018-06-21T22:12:40.320Z,1.90
2018-06-21T22:15:14.424Z,1.10
2018-06-21T22:18:00.376Z,1.87
2018-06-21T22:20:34.272Z,1.40
2018-06-21T22:23:03.016Z,1.70
2018-06-21T22:25:35.132Z,1.57
2018-06-21T22:28:16.327Z,1.17
2018-06-21T22:30:47.104Z,1.33
2018-06-21T22:33:16.980Z,1.50
2018-06-21T22:36:01.872Z,1.53
2018-06-21T22:38:38.168Z,1.13
2018-06-21T22:41:07.747Z,1.30
2018-06-21T22:43:37.315Z,1.50
2018-06-21T22:46:06.736Z,1.03
2018-06-21T22:48:38.947Z,1.00
2018-06-21T22:54:05.197Z,1.30
2018-06-21T22:56:37.383Z,1.57
2018-06-21T22:59:06.275Z,1.50
2018-06-21T23:01:35.117Z,1.00
2018-06-21T23:04:15.528Z,1.30
2018-06-21T23:06:44.364Z,1.00
2018-06-21T23:09:18.200Z,1.40
2018-06-21T23:11:54.684Z,1.30
2018-06-21T23:14:24.263Z,2.03
2018-06-21T23:16:57.132Z,1.50
2018-06-21T23:19:37.051Z,1.87
2018-06-21T23:22:09.544Z,1.50
2018-06-21T23:24:40.399Z,1.32
2018-06-21T23:27:11.152Z,1.30
2018-06-21T23:29:51.600Z,1.55
2018-06-21T23:32:20.336Z,1.30
2018-06-21T23:34:50.075Z,1.50
2018-06-21T23:37:18.814Z,2.30
2018-06-21T23:40:00.833Z,1.77
2018-06-21T23:42:37.400Z,1.50
2018-06-21T23:45:13.919Z,1.37
2018-06-21T23:47:42.715Z,1.35
2018-06-21T23:50:29.071Z,1.82
2018-06-21T23:53:01.576Z,1.62
2018-06-21T23:55:32.396Z,1.40
2018-06-21T23:58:03.159Z,1.22
